sensor_id;sensor_type;location;lat;lon;timestamp;P1;durP1;ratioP1;P2;durP2;ratioP2
42514;SDS011;28144;49.920;18.730;2023-05-03T00:01:39;57.67;;;36.88;;
42514;SDS011;28144;49.920;18.730;2023-05-03T00:04:05;61.87;;;41.27;;
42514;SDS011;28144;49.920;18.730;2023-05-03T00:06:31;55.83;;;38.58;;
42514;SDS011;28144;49.920;18.730;2023-05-03T00:08:57;59.87;;;39.00;;
42514;SDS011;28144;49.920;18.730;2023-05-03T00:11:23;55.00;;;37.77;;
42514;SDS011;28144;49.920;18.730;2023-05-03T00:13:48;58.10;;;40.10;;
42514;SDS011;28144;49.920;18.730;2023-05-03T00:16:15;58.65;;;39.47;;
42514;SDS011;28144;49.920;18.730;2023-05-03T00:18:40;56.10;;;37.00;;
42514;SDS011;28144;49.920;18.730;2023-05-03T00:21:06;60.90;;;39.90;;
42514;SDS011;28144;49.920;18.730;2023-05-03T00:23:32;58.90;;;39.60;;
42514;SDS011;28144;49.920;18.730;2023-05-03T00:25:58;58.50;;;39.27;;
42514;SDS011;28144;49.920;18.730;2023-05-03T00:28:24;68.10;;;39.93;;
42514;SDS011;28144;49.920;18.730;2023-05-03T00:30:50;56.20;;;38.03;;
42514;SDS011;28144;49.920;18.730;2023-05-03T00:33:16;56.55;;;39.58;;
42514;SDS011;28144;49.920;18.730;2023-05-03T00:35:43;64.05;;;40.78;;
42514;SDS011;28144;49.920;18.730;2023-05-03T00:38:09;64.45;;;41.13;;
42514;SDS011;28144;49.920;18.730;2023-05-03T00:40:34;60.00;;;40.55;;
42514;SDS011;28144;49.920;18.730;2023-05-03T00:43:01;56.07;;;38.80;;
42514;SDS011;28144;49.920;18.730;2023-05-03T00:45:29;63.92;;;40.33;;
42514;SDS011;28144;49.920;18.730;2023-05-03T00:47:55;57.45;;;38.58;;
42514;SDS011;28144;49.920;18.730;2023-05-03T00:50:21;63.10;;;41.57;;
42514;SDS011;28144;49.920;18.730;2023-05-03T00:52:46;61.40;;;41.37;;
42514;SDS011;28144;49.920;18.730;2023-05-03T00:55:12;62.03;;;42.25;;
42514;SDS011;28144;49.920;18.730;2023-05-03T00:57:38;64.23;;;43.10;;
42514;SDS011;28144;49.920;18.730;2023-05-03T01:00:05;65.40;;;44.80;;
42514;SDS011;28144;49.920;18.730;2023-05-03T01:02:35;65.22;;;43.90;;
42514;SDS011;28144;49.920;18.730;2023-05-03T01:05:01;66.95;;;46.08;;
42514;SDS011;28144;49.920;18.730;2023-05-03T01:18:23;62.15;;;41.95;;
42514;SDS011;28144;49.920;18.730;2023-05-03T01:20:53;73.82;;;49.00;;
42514;SDS011;28144;49.920;18.730;2023-05-03T01:23:32;64.22;;;43.65;;
42514;SDS011;28144;49.920;18.730;2023-05-03T01:26:14;59.85;;;41.10;;
42514;SDS011;28144;49.920;18.730;2023-05-03T01:28:43;63.75;;;41.00;;
42514;SDS011;28144;49.920;18.730;2023-05-03T01:31:09;61.87;;;40.03;;
42514;SDS011;28144;49.920;18.730;2023-05-03T01:33:50;54.72;;;37.45;;
42514;SDS011;28144;49.920;18.730;2023-05-03T01:36:41;56.90;;;39.03;;
42514;SDS011;28144;49.920;18.730;2023-05-03T01:39:10;60.30;;;39.00;;
42514;SDS011;28144;49.920;18.730;2023-05-03T01:41:39;59.95;;;40.42;;
42514;SDS011;28144;49.920;18.730;2023-05-03T01:44:06;58.40;;;40.03;;
42514;SDS011;28144;49.920;18.730;2023-05-03T01:46:42;54.60;;;37.63;;
42514;SDS011;28144;49.920;18.730;2023-05-03T01:49:09;60.70;;;39.17;;
42514;SDS011;28144;49.920;18.730;2023-05-03T01:51:35;57.95;;;39.25;;
42514;SDS011;28144;49.920;18.730;2023-05-03T01:54:00;60.33;;;41.00;;
42514;SDS011;28144;49.920;18.730;2023-05-03T01:56:26;59.47;;;38.73;;
42514;SDS011;28144;49.920;18.730;2023-05-03T01:58:53;65.20;;;41.22;;
42514;SDS011;28144;49.920;18.730;2023-05-03T02:01:19;61.07;;;40.40;;
42514;SDS011;28144;49.920;18.730;2023-05-03T02:03:44;62.90;;;42.87;;
42514;SDS011;28144;49.920;18.730;2023-05-03T02:06:10;64.93;;;42.07;;
42514;SDS011;28144;49.920;18.730;2023-05-03T02:08:36;62.37;;;40.87;;
42514;SDS011;28144;49.920;18.730;2023-05-03T02:11:01;59.97;;;40.80;;
42514;SDS011;28144;49.920;18.730;2023-05-03T02:13:27;66.20;;;43.57;;
42514;SDS011;28144;49.920;18.730;2023-05-03T02:15:53;64.27;;;41.77;;
42514;SDS011;28144;49.920;18.730;2023-05-03T02:18:19;68.68;;;44.40;;
42514;SDS011;28144;49.920;18.730;2023-05-03T02:20:46;65.90;;;43.92;;
42514;SDS011;28144;49.920;18.730;2023-05-03T02:23:12;65.97;;;44.00;;
42514;SDS011;28144;49.920;18.730;2023-05-03T02:25:39;73.50;;;52.38;;
42514;SDS011;28144;49.920;18.730;2023-05-03T02:28:05;79.68;;;56.03;;
42514;SDS011;28144;49.920;18.730;2023-05-03T02:30:31;68.18;;;46.30;;
42514;SDS011;28144;49.920;18.730;2023-05-03T02:35:24;55.85;;;38.65;;
42514;SDS011;28144;49.920;18.730;2023-05-03T02:37:50;68.05;;;46.20;;
42514;SDS011;28144;49.920;18.730;2023-05-03T02:40:16;59.63;;;42.63;;
42514;SDS011;28144;49.920;18.730;2023-05-03T02:42:42;61.33;;;43.30;;
42514;SDS011;28144;49.920;18.730;2023-05-03T02:45:07;65.03;;;44.47;;
42514;SDS011;28144;49.920;18.730;2023-05-03T02:47:35;64.63;;;47.33;;
42514;SDS011;28144;49.920;18.730;2023-05-03T02:53:42;60.78;;;44.53;;
42514;SDS011;28144;49.920;18.730;2023-05-03T02:56:08;61.73;;;42.23;;
42514;SDS011;28144;49.920;18.730;2023-05-03T02:58:34;60.40;;;41.50;;
42514;SDS011;28144;49.920;18.730;2023-05-03T03:01:00;61.70;;;40.53;;
42514;SDS011;28144;49.920;18.730;2023-05-03T03:03:25;59.93;;;41.07;;
42514;SDS011;28144;49.920;18.730;2023-05-03T03:05:51;59.70;;;42.43;;
42514;SDS011;28144;49.920;18.730;2023-05-03T03:08:17;63.23;;;42.10;;
42514;SDS011;28144;49.920;18.730;2023-05-03T03:10:42;61.83;;;42.00;;
42514;SDS011;28144;49.920;18.730;2023-05-03T03:13:08;62.40;;;42.97;;
42514;SDS011;28144;49.920;18.730;2023-05-03T03:15:34;58.27;;;40.27;;
42514;SDS011;28144;49.920;18.730;2023-05-03T03:17:59;59.00;;;41.37;;
42514;SDS011;28144;49.920;18.730;2023-05-03T03:20:26;66.40;;;45.93;;
42514;SDS011;28144;49.920;18.730;2023-05-03T03:22:52;65.68;;;46.25;;
42514;SDS011;28144;49.920;18.730;2023-05-03T03:25:18;66.47;;;47.93;;
42514;SDS011;28144;49.920;18.730;2023-05-03T03:30:10;59.70;;;39.40;;
42514;SDS011;28144;49.920;18.730;2023-05-03T03:32:36;60.93;;;40.87;;
42514;SDS011;28144;49.920;18.730;2023-05-03T03:35:02;60.13;;;42.37;;
42514;SDS011;28144;49.920;18.730;2023-05-03T03:37:28;67.00;;;42.65;;
42514;SDS011;28144;49.920;18.730;2023-05-03T03:39:54;59.20;;;42.83;;
42514;SDS011;28144;49.920;18.730;2023-05-03T03:42:19;64.63;;;44.57;;
42514;SDS011;28144;49.920;18.730;2023-05-03T03:44:46;63.70;;;43.55;;
42514;SDS011;28144;49.920;18.730;2023-05-03T03:47:12;68.30;;;44.10;;
42514;SDS011;28144;49.920;18.730;2023-05-03T03:49:37;79.77;;;54.57;;
42514;SDS011;28144;49.920;18.730;2023-05-03T03:52:03;65.87;;;44.33;;
42514;SDS011;28144;49.920;18.730;2023-05-03T03:54:29;75.30;;;56.78;;
42514;SDS011;28144;49.920;18.730;2023-05-03T03:56:55;69.40;;;44.10;;
42514;SDS011;28144;49.920;18.730;2023-05-03T03:59:21;73.50;;;46.40;;
42514;SDS011;28144;49.920;18.730;2023-05-03T04:01:47;65.77;;;45.20;;
42514;SDS011;28144;49.920;18.730;2023-05-03T04:04:13;73.37;;;45.50;;
42514;SDS011;28144;49.920;18.730;2023-05-03T04:06:38;70.73;;;45.10;;
42514;SDS011;28144;49.920;18.730;2023-05-03T04:09:04;61.53;;;44.20;;
42514;SDS011;28144;49.920;18.730;2023-05-03T04:11:30;59.10;;;41.23;;
42514;SDS011;28144;49.920;18.730;2023-05-03T04:13:56;68.28;;;45.08;;
42514;SDS011;28144;49.920;18.730;2023-05-03T04:16:21;64.53;;;43.03;;
42514;SDS011;28144;49.920;18.730;2023-05-03T04:18:47;63.77;;;44.27;;
42514;SDS011;28144;49.920;18.730;2023-05-03T04:21:13;61.27;;;42.53;;
42514;SDS011;28144;49.920;18.730;2023-05-03T04:23:38;56.43;;;41.43;;
42514;SDS011;28144;49.920;18.730;2023-05-03T04:26:04;59.60;;;40.33;;
42514;SDS011;28144;49.920;18.730;2023-05-03T04:28:30;57.20;;;40.23;;
42514;SDS011;28144;49.920;18.730;2023-05-03T04:30:56;53.57;;;37.60;;
42514;SDS011;28144;49.920;18.730;2023-05-03T04:33:23;54.13;;;40.05;;
42514;SDS011;28144;49.920;18.730;2023-05-03T04:35:52;58.83;;;40.57;;
42514;SDS011;28144;49.920;18.730;2023-05-03T04:38:20;64.00;;;42.03;;
42514;SDS011;28144;49.920;18.730;2023-05-03T04:40:46;57.75;;;40.88;;
42514;SDS011;28144;49.920;18.730;2023-05-03T04:43:12;61.33;;;42.47;;
42514;SDS011;28144;49.920;18.730;2023-05-03T04:45:38;62.57;;;43.27;;
42514;SDS011;28144;49.920;18.730;2023-05-03T04:48:04;64.82;;;44.95;;
42514;SDS011;28144;49.920;18.730;2023-05-03T04:50:30;69.97;;;46.73;;
42514;SDS011;28144;49.920;18.730;2023-05-03T04:55:22;70.45;;;46.03;;
42514;SDS011;28144;49.920;18.730;2023-05-03T04:57:48;66.40;;;44.28;;
42514;SDS011;28144;49.920;18.730;2023-05-03T05:00:14;66.93;;;43.67;;
42514;SDS011;28144;49.920;18.730;2023-05-03T05:02:41;57.90;;;39.10;;
42514;SDS011;28144;49.920;18.730;2023-05-03T05:07:34;50.15;;;33.38;;
42514;SDS011;28144;49.920;18.730;2023-05-03T05:09:59;48.20;;;34.40;;
42514;SDS011;28144;49.920;18.730;2023-05-03T05:12:25;49.97;;;33.60;;
42514;SDS011;28144;49.920;18.730;2023-05-03T05:14:51;47.30;;;31.95;;
42514;SDS011;28144;49.920;18.730;2023-05-03T05:17:17;50.47;;;32.85;;
42514;SDS011;28144;49.920;18.730;2023-05-03T05:19:43;46.77;;;31.87;;
42514;SDS011;28144;49.920;18.730;2023-05-03T05:22:09;46.67;;;32.30;;
42514;SDS011;28144;49.920;18.730;2023-05-03T05:24:34;55.00;;;36.47;;
42514;SDS011;28144;49.920;18.730;2023-05-03T05:27:00;56.77;;;38.10;;
42514;SDS011;28144;49.920;18.730;2023-05-03T05:29:27;56.03;;;38.70;;
42514;SDS011;28144;49.920;18.730;2023-05-03T05:31:55;58.50;;;39.60;;
42514;SDS011;28144;49.920;18.730;2023-05-03T05:34:22;58.85;;;40.97;;
42514;SDS011;28144;49.920;18.730;2023-05-03T05:36:49;55.93;;;39.23;;
42514;SDS011;28144;49.920;18.730;2023-05-03T05:39:16;57.42;;;38.15;;
42514;SDS011;28144;49.920;18.730;2023-05-03T05:41:42;59.53;;;38.70;;
42514;SDS011;28144;49.920;18.730;2023-05-03T05:44:09;55.22;;;38.97;;
42514;SDS011;28144;49.920;18.730;2023-05-03T05:46:35;53.95;;;35.92;;
42514;SDS011;28144;49.920;18.730;2023-05-03T05:49:01;60.55;;;44.90;;
42514;SDS011;28144;49.920;18.730;2023-05-03T05:51:31;42.53;;;29.03;;
42514;SDS011;28144;49.920;18.730;2023-05-03T05:53:57;32.03;;;20.10;;
42514;SDS011;28144;49.920;18.730;2023-05-03T05:56:23;24.83;;;12.57;;
42514;SDS011;28144;49.920;18.730;2023-05-03T05:58:49;30.90;;;17.97;;
42514;SDS011;28144;49.920;18.730;2023-05-03T06:01:18;26.13;;;16.15;;
42514;SDS011;28144;49.920;18.730;2023-05-03T06:03:44;32.53;;;20.73;;
42514;SDS011;28144;49.920;18.730;2023-05-03T06:06:12;34.60;;;24.10;;
42514;SDS011;28144;49.920;18.730;2023-05-03T06:08:38;34.97;;;25.42;;
42514;SDS011;28144;49.920;18.730;2023-05-03T06:11:04;31.27;;;22.23;;
42514;SDS011;28144;49.920;18.730;2023-05-03T06:13:29;37.53;;;23.93;;
42514;SDS011;28144;49.920;18.730;2023-05-03T06:15:57;35.03;;;25.33;;
42514;SDS011;28144;49.920;18.730;2023-05-03T06:18:32;29.73;;;21.83;;
42514;SDS011;28144;49.920;18.730;2023-05-03T06:21:02;37.20;;;24.90;;
42514;SDS011;28144;49.920;18.730;2023-05-03T06:23:27;29.07;;;17.30;;
42514;SDS011;28144;49.920;18.730;2023-05-03T06:25:53;29.97;;;21.73;;
42514;SDS011;28144;49.920;18.730;2023-05-03T06:28:19;28.90;;;21.47;;
42514;SDS011;28144;49.920;18.730;2023-05-03T06:30:48;17.95;;;11.13;;
42514;SDS011;28144;49.920;18.730;2023-05-03T06:33:14;17.13;;;10.97;;
42514;SDS011;28144;49.920;18.730;2023-05-03T06:35:40;25.15;;;14.77;;
42514;SDS011;28144;49.920;18.730;2023-05-03T06:38:07;24.80;;;13.37;;
42514;SDS011;28144;49.920;18.730;2023-05-03T06:40:33;18.90;;;10.47;;
42514;SDS011;28144;49.920;18.730;2023-05-03T06:42:59;16.48;;;9.77;;
42514;SDS011;28144;49.920;18.730;2023-05-03T06:45:25;19.43;;;10.17;;
42514;SDS011;28144;49.920;18.730;2023-05-03T06:47:50;9.90;;;6.03;;
42514;SDS011;28144;49.920;18.730;2023-05-03T06:50:16;22.23;;;11.80;;
42514;SDS011;28144;49.920;18.730;2023-05-03T06:52:44;18.33;;;10.30;;
42514;SDS011;28144;49.920;18.730;2023-05-03T06:55:11;18.35;;;9.70;;
42514;SDS011;28144;49.920;18.730;2023-05-03T06:57:37;19.40;;;10.23;;
42514;SDS011;28144;49.920;18.730;2023-05-03T07:02:32;20.10;;;9.40;;
42514;SDS011;28144;49.920;18.730;2023-05-03T07:04:58;17.25;;;11.98;;
42514;SDS011;28144;49.920;18.730;2023-05-03T07:07:24;19.80;;;11.43;;
42514;SDS011;28144;49.920;18.730;2023-05-03T07:09:50;29.85;;;12.05;;
42514;SDS011;28144;49.920;18.730;2023-05-03T07:12:15;55.33;;;26.90;;
42514;SDS011;28144;49.920;18.730;2023-05-03T07:14:41;37.13;;;18.50;;
42514;SDS011;28144;49.920;18.730;2023-05-03T07:17:07;25.10;;;12.60;;
42514;SDS011;28144;49.920;18.730;2023-05-03T07:19:33;28.58;;;16.73;;
42514;SDS011;28144;49.920;18.730;2023-05-03T07:21:59;45.67;;;20.77;;
42514;SDS011;28144;49.920;18.730;2023-05-03T07:24:27;46.47;;;22.60;;
42514;SDS011;28144;49.920;18.730;2023-05-03T07:26:53;34.60;;;18.48;;
42514;SDS011;28144;49.920;18.730;2023-05-03T07:29:19;25.57;;;14.67;;
42514;SDS011;28144;49.920;18.730;2023-05-03T07:31:45;22.73;;;12.23;;
42514;SDS011;28144;49.920;18.730;2023-05-03T07:34:11;20.88;;;11.52;;
42514;SDS011;28144;49.920;18.730;2023-05-03T07:36:37;17.53;;;7.83;;
42514;SDS011;28144;49.920;18.730;2023-05-03T07:39:04;18.67;;;10.93;;
42514;SDS011;28144;49.920;18.730;2023-05-03T07:41:29;18.30;;;11.50;;
42514;SDS011;28144;49.920;18.730;2023-05-03T07:43:56;47.05;;;18.13;;
42514;SDS011;28144;49.920;18.730;2023-05-03T07:46:21;45.77;;;21.27;;
42514;SDS011;28144;49.920;18.730;2023-05-03T07:48:48;16.85;;;8.23;;
42514;SDS011;28144;49.920;18.730;2023-05-03T07:51:13;24.33;;;13.27;;
42514;SDS011;28144;49.920;18.730;2023-05-03T07:53:39;18.60;;;11.70;;
42514;SDS011;28144;49.920;18.730;2023-05-03T07:56:08;37.87;;;17.83;;
42514;SDS011;28144;49.920;18.730;2023-05-03T07:58:34;21.40;;;8.93;;
42514;SDS011;28144;49.920;18.730;2023-05-03T08:00:59;23.83;;;11.73;;
42514;SDS011;28144;49.920;18.730;2023-05-03T08:03:26;19.00;;;9.50;;
42514;SDS011;28144;49.920;18.730;2023-05-03T08:05:52;22.00;;;10.33;;
42514;SDS011;28144;49.920;18.730;2023-05-03T08:08:18;22.60;;;10.40;;
42514;SDS011;28144;49.920;18.730;2023-05-03T08:10:43;10.87;;;5.27;;
42514;SDS011;28144;49.920;18.730;2023-05-03T08:13:09;15.90;;;10.23;;
42514;SDS011;28144;49.920;18.730;2023-05-03T08:15:35;22.73;;;10.95;;
42514;SDS011;28144;49.920;18.730;2023-05-03T08:18:01;23.07;;;9.40;;
42514;SDS011;28144;49.920;18.730;2023-05-03T08:20:27;21.97;;;10.77;;
42514;SDS011;28144;49.920;18.730;2023-05-03T08:22:53;31.20;;;13.18;;
42514;SDS011;28144;49.920;18.730;2023-05-03T08:25:22;14.70;;;8.00;;
42514;SDS011;28144;49.920;18.730;2023-05-03T08:27:51;21.27;;;11.40;;
42514;SDS011;28144;49.920;18.730;2023-05-03T08:30:17;15.13;;;9.75;;
42514;SDS011;28144;49.920;18.730;2023-05-03T08:32:44;20.30;;;10.07;;
42514;SDS011;28144;49.920;18.730;2023-05-03T08:35:10;23.05;;;12.40;;
42514;SDS011;28144;49.920;18.730;2023-05-03T08:37:38;20.87;;;9.77;;
42514;SDS011;28144;49.920;18.730;2023-05-03T08:40:05;24.63;;;12.32;;
42514;SDS011;28144;49.920;18.730;2023-05-03T08:42:32;20.47;;;11.23;;
42514;SDS011;28144;49.920;18.730;2023-05-03T08:44:57;18.73;;;11.57;;
42514;SDS011;28144;49.920;18.730;2023-05-03T08:47:23;25.50;;;11.45;;
42514;SDS011;28144;49.920;18.730;2023-05-03T08:49:51;25.10;;;12.20;;
42514;SDS011;28144;49.920;18.730;2023-05-03T08:52:17;24.50;;;12.15;;
42514;SDS011;28144;49.920;18.730;2023-05-03T08:54:45;24.17;;;11.43;;
42514;SDS011;28144;49.920;18.730;2023-05-03T08:57:13;21.93;;;11.20;;
42514;SDS011;28144;49.920;18.730;2023-05-03T08:59:46;28.02;;;14.02;;
42514;SDS011;28144;49.920;18.730;2023-05-03T09:02:16;23.52;;;10.52;;
42514;SDS011;28144;49.920;18.730;2023-05-03T09:04:41;17.52;;;6.97;;
42514;SDS011;28144;49.920;18.730;2023-05-03T09:07:11;29.08;;;9.40;;
42514;SDS011;28144;49.920;18.730;2023-05-03T09:09:43;29.83;;;12.33;;
42514;SDS011;28144;49.920;18.730;2023-05-03T09:12:09;33.22;;;12.68;;
42514;SDS011;28144;49.920;18.730;2023-05-03T09:14:42;18.27;;;8.37;;
42514;SDS011;28144;49.920;18.730;2023-05-03T09:17:15;27.30;;;10.83;;
42514;SDS011;28144;49.920;18.730;2023-05-03T09:19:50;10.57;;;5.37;;
42514;SDS011;28144;49.920;18.730;2023-05-03T09:22:24;22.37;;;8.53;;
42514;SDS011;28144;49.920;18.730;2023-05-03T09:24:51;24.27;;;12.70;;
42514;SDS011;28144;49.920;18.730;2023-05-03T09:27:22;16.07;;;7.80;;
42514;SDS011;28144;49.920;18.730;2023-05-03T09:29:48;20.30;;;8.20;;
42514;SDS011;28144;49.920;18.730;2023-05-03T09:32:15;22.43;;;8.67;;
42514;SDS011;28144;49.920;18.730;2023-05-03T09:34:42;18.75;;;9.52;;
42514;SDS011;28144;49.920;18.730;2023-05-03T09:37:08;19.85;;;9.25;;
42514;SDS011;28144;49.920;18.730;2023-05-03T09:39:34;14.23;;;9.27;;
42514;SDS011;28144;49.920;18.730;2023-05-03T09:42:14;15.10;;;9.45;;
42514;SDS011;28144;49.920;18.730;2023-05-03T09:47:13;14.13;;;7.63;;
42514;SDS011;28144;49.920;18.730;2023-05-03T09:49:39;18.73;;;10.18;;
42514;SDS011;28144;49.920;18.730;2023-05-03T09:52:05;14.97;;;10.07;;
42514;SDS011;28144;49.920;18.730;2023-05-03T09:54:31;19.45;;;10.27;;
42514;SDS011;28144;49.920;18.730;2023-05-03T09:57:00;22.93;;;10.23;;
42514;SDS011;28144;49.920;18.730;2023-05-03T09:59:33;17.47;;;8.73;;
42514;SDS011;28144;49.920;18.730;2023-05-03T10:02:01;20.07;;;10.17;;
42514;SDS011;28144;49.920;18.730;2023-05-03T10:04:32;19.90;;;9.83;;
42514;SDS011;28144;49.920;18.730;2023-05-03T10:07:04;22.83;;;11.50;;
42514;SDS011;28144;49.920;18.730;2023-05-03T10:09:39;26.70;;;11.67;;
42514;SDS011;28144;49.920;18.730;2023-05-03T10:12:08;17.63;;;9.27;;
42514;SDS011;28144;49.920;18.730;2023-05-03T10:14:38;19.30;;;8.47;;
42514;SDS011;28144;49.920;18.730;2023-05-03T10:17:16;12.13;;;5.87;;
42514;SDS011;28144;49.920;18.730;2023-05-03T10:19:59;23.63;;;12.83;;
42514;SDS011;28144;49.920;18.730;2023-05-03T10:22:32;19.43;;;10.93;;
42514;SDS011;28144;49.920;18.730;2023-05-03T10:25:30;14.87;;;8.03;;
42514;SDS011;28144;49.920;18.730;2023-05-03T10:28:03;14.97;;;7.97;;
42514;SDS011;28144;49.920;18.730;2023-05-03T10:30:30;20.52;;;10.75;;
42514;SDS011;28144;49.920;18.730;2023-05-03T10:35:38;23.35;;;10.82;;
42514;SDS011;28144;49.920;18.730;2023-05-03T10:38:15;25.90;;;11.00;;
42514;SDS011;28144;49.920;18.730;2023-05-03T10:40:42;25.75;;;11.30;;
42514;SDS011;28144;49.920;18.730;2023-05-03T10:46:07;21.63;;;10.93;;
42514;SDS011;28144;49.920;18.730;2023-05-03T10:48:36;19.80;;;10.60;;
42514;SDS011;28144;49.920;18.730;2023-05-03T10:56:23;18.37;;;9.60;;
42514;SDS011;28144;49.920;18.730;2023-05-03T10:58:49;23.52;;;11.60;;
42514;SDS011;28144;49.920;18.730;2023-05-03T11:01:16;22.27;;;11.80;;
42514;SDS011;28144;49.920;18.730;2023-05-03T11:04:02;21.03;;;10.33;;
42514;SDS011;28144;49.920;18.730;2023-05-03T11:06:33;27.63;;;12.38;;
42514;SDS011;28144;49.920;18.730;2023-05-03T11:09:00;31.40;;;12.93;;
42514;SDS011;28144;49.920;18.730;2023-05-03T11:11:31;25.08;;;11.13;;
42514;SDS011;28144;49.920;18.730;2023-05-03T11:13:59;24.13;;;12.02;;
42514;SDS011;28144;49.920;18.730;2023-05-03T11:16:25;15.77;;;9.87;;
42514;SDS011;28144;49.920;18.730;2023-05-03T11:18:51;16.42;;;9.65;;
42514;SDS011;28144;49.920;18.730;2023-05-03T11:21:18;16.35;;;8.25;;
42514;SDS011;28144;49.920;18.730;2023-05-03T11:23:44;22.27;;;9.20;;
42514;SDS011;28144;49.920;18.730;2023-05-03T11:26:09;18.13;;;8.87;;
42514;SDS011;28144;49.920;18.730;2023-05-03T11:28:42;16.52;;;8.20;;
42514;SDS011;28144;49.920;18.730;2023-05-03T11:31:09;16.30;;;9.20;;
42514;SDS011;28144;49.920;18.730;2023-05-03T11:36:02;14.57;;;8.85;;
42514;SDS011;28144;49.920;18.730;2023-05-03T11:40:55;19.00;;;9.98;;
42514;SDS011;28144;49.920;18.730;2023-05-03T11:43:21;20.27;;;9.32;;
42514;SDS011;28144;49.920;18.730;2023-05-03T11:45:46;17.67;;;9.53;;
42514;SDS011;28144;49.920;18.730;2023-05-03T11:48:13;18.83;;;9.57;;
42514;SDS011;28144;49.920;18.730;2023-05-03T11:53:13;16.38;;;9.25;;
42514;SDS011;28144;49.920;18.730;2023-05-03T11:55:40;16.05;;;8.48;;
42514;SDS011;28144;49.920;18.730;2023-05-03T11:58:10;20.35;;;9.57;;
42514;SDS011;28144;49.920;18.730;2023-05-03T12:00:37;23.45;;;12.00;;
42514;SDS011;28144;49.920;18.730;2023-05-03T12:03:04;19.80;;;8.90;;
42514;SDS011;28144;49.920;18.730;2023-05-03T12:05:32;17.88;;;9.40;;
42514;SDS011;28144;49.920;18.730;2023-05-03T12:07:58;17.77;;;8.20;;
42514;SDS011;28144;49.920;18.730;2023-05-03T12:10:24;15.97;;;9.03;;
42514;SDS011;28144;49.920;18.730;2023-05-03T12:12:56;16.90;;;9.90;;
42514;SDS011;28144;49.920;18.730;2023-05-03T12:15:27;36.50;;;19.15;;
42514;SDS011;28144;49.920;18.730;2023-05-03T12:17:55;17.10;;;9.40;;
42514;SDS011;28144;49.920;18.730;2023-05-03T12:20:22;14.95;;;8.50;;
42514;SDS011;28144;49.920;18.730;2023-05-03T12:22:52;17.55;;;10.23;;
42514;SDS011;28144;49.920;18.730;2023-05-03T12:25:18;16.02;;;9.70;;
42514;SDS011;28144;49.920;18.730;2023-05-03T12:27:45;17.75;;;9.63;;
42514;SDS011;28144;49.920;18.730;2023-05-03T12:30:11;19.83;;;9.03;;
42514;SDS011;28144;49.920;18.730;2023-05-03T12:32:37;22.13;;;9.18;;
42514;SDS011;28144;49.920;18.730;2023-05-03T12:35:04;19.87;;;9.10;;
42514;SDS011;28144;49.920;18.730;2023-05-03T12:37:30;15.50;;;8.48;;
42514;SDS011;28144;49.920;18.730;2023-05-03T12:39:56;19.53;;;8.63;;
42514;SDS011;28144;49.920;18.730;2023-05-03T12:42:22;17.23;;;8.90;;
42514;SDS011;28144;49.920;18.730;2023-05-03T12:44:47;21.53;;;8.60;;
42514;SDS011;28144;49.920;18.730;2023-05-03T12:47:13;15.77;;;8.37;;
42514;SDS011;28144;49.920;18.730;2023-05-03T12:49:40;14.98;;;7.97;;
42514;SDS011;28144;49.920;18.730;2023-05-03T12:52:05;14.50;;;8.70;;
42514;SDS011;28144;49.920;18.730;2023-05-03T12:54:32;18.57;;;8.33;;
42514;SDS011;28144;49.920;18.730;2023-05-03T12:56:58;13.52;;;7.68;;
42514;SDS011;28144;49.920;18.730;2023-05-03T12:59:38;18.63;;;7.88;;
42514;SDS011;28144;49.920;18.730;2023-05-03T13:02:04;16.52;;;7.72;;
42514;SDS011;28144;49.920;18.730;2023-05-03T13:04:30;15.17;;;7.70;;
42514;SDS011;28144;49.920;18.730;2023-05-03T13:06:57;16.67;;;7.50;;
42514;SDS011;28144;49.920;18.730;2023-05-03T13:09:23;18.53;;;8.13;;
42514;SDS011;28144;49.920;18.730;2023-05-03T13:11:49;15.98;;;7.35;;
42514;SDS011;28144;49.920;18.730;2023-05-03T13:14:16;15.73;;;7.45;;
42514;SDS011;28144;49.920;18.730;2023-05-03T13:24:01;15.68;;;8.30;;
42514;SDS011;28144;49.920;18.730;2023-05-03T13:32:56;13.00;;;7.40;;
42514;SDS011;28144;49.920;18.730;2023-05-03T13:35:22;15.93;;;9.30;;
42514;SDS011;28144;49.920;18.730;2023-05-03T13:37:48;14.73;;;8.23;;
42514;SDS011;28144;49.920;18.730;2023-05-03T13:40:14;14.60;;;6.90;;
42514;SDS011;28144;49.920;18.730;2023-05-03T13:42:40;17.40;;;8.87;;
42514;SDS011;28144;49.920;18.730;2023-05-03T13:45:06;11.02;;;7.00;;
42514;SDS011;28144;49.920;18.730;2023-05-03T13:47:32;12.35;;;6.70;;
42514;SDS011;28144;49.920;18.730;2023-05-03T13:49:58;18.30;;;11.23;;
42514;SDS011;28144;49.920;18.730;2023-05-03T13:52:25;59.03;;;20.58;;
42514;SDS011;28144;49.920;18.730;2023-05-03T13:54:51;23.50;;;10.32;;
42514;SDS011;28144;49.920;18.730;2023-05-03T13:57:18;23.45;;;9.65;;
42514;SDS011;28144;49.920;18.730;2023-05-03T13:59:45;12.10;;;7.05;;
42514;SDS011;28144;49.920;18.730;2023-05-03T14:02:10;41.40;;;16.87;;
42514;SDS011;28144;49.920;18.730;2023-05-03T14:04:36;14.65;;;7.70;;
42514;SDS011;28144;49.920;18.730;2023-05-03T14:07:02;15.80;;;7.87;;
42514;SDS011;28144;49.920;18.730;2023-05-03T14:09:28;15.43;;;7.28;;
42514;SDS011;28144;49.920;18.730;2023-05-03T14:11:54;15.55;;;7.82;;
42514;SDS011;28144;49.920;18.730;2023-05-03T14:14:20;17.30;;;8.32;;
42514;SDS011;28144;49.920;18.730;2023-05-03T14:16:46;21.47;;;8.90;;
42514;SDS011;28144;49.920;18.730;2023-05-03T14:19:12;17.95;;;8.40;;
42514;SDS011;28144;49.920;18.730;2023-05-03T14:21:42;15.60;;;7.90;;
42514;SDS011;28144;49.920;18.730;2023-05-03T14:24:09;18.17;;;9.35;;
42514;SDS011;28144;49.920;18.730;2023-05-03T14:26:36;20.60;;;8.98;;
42514;SDS011;28144;49.920;18.730;2023-05-03T14:29:02;19.30;;;10.25;;
42514;SDS011;28144;49.920;18.730;2023-05-03T14:31:29;17.52;;;9.23;;
42514;SDS011;28144;49.920;18.730;2023-05-03T14:33:56;16.27;;;9.05;;
42514;SDS011;28144;49.920;18.730;2023-05-03T14:36:23;20.25;;;9.02;;
42514;SDS011;28144;49.920;18.730;2023-05-03T14:38:51;18.10;;;8.80;;
42514;SDS011;28144;49.920;18.730;2023-05-03T14:41:17;20.10;;;8.83;;
42514;SDS011;28144;49.920;18.730;2023-05-03T14:43:43;15.75;;;8.68;;
42514;SDS011;28144;49.920;18.730;2023-05-03T14:46:08;19.70;;;9.47;;
42514;SDS011;28144;49.920;18.730;2023-05-03T14:48:34;17.20;;;8.60;;
42514;SDS011;28144;49.920;18.730;2023-05-03T14:51:00;17.40;;;9.27;;
42514;SDS011;28144;49.920;18.730;2023-05-03T14:53:26;18.83;;;9.40;;
42514;SDS011;28144;49.920;18.730;2023-05-03T14:55:53;19.45;;;10.30;;
42514;SDS011;28144;49.920;18.730;2023-05-03T14:58:19;20.17;;;9.43;;
42514;SDS011;28144;49.920;18.730;2023-05-03T15:00:44;16.93;;;8.77;;
42514;SDS011;28144;49.920;18.730;2023-05-03T15:03:10;18.37;;;8.77;;
42514;SDS011;28144;49.920;18.730;2023-05-03T15:05:43;15.48;;;9.85;;
42514;SDS011;28144;49.920;18.730;2023-05-03T15:08:12;19.52;;;8.63;;
42514;SDS011;28144;49.920;18.730;2023-05-03T15:10:38;16.35;;;8.13;;
42514;SDS011;28144;49.920;18.730;2023-05-03T15:13:06;15.10;;;8.00;;
42514;SDS011;28144;49.920;18.730;2023-05-03T15:15:32;17.02;;;8.45;;